Time;durP1;ratioP1;P1;durP2;ratioP2;P2;SDS_P1;SDS_P2;PMS_P1;PMS_P2;Temp;Humidity;BMP_temperature;BMP_pressure;BME280_temperature;BME280_humidity;BME280_pressure;Samples;Min_cycle;Max_cycle;Signal;HPM_P1;HPM_P2
2022/01/21 00:01:17;;;;;;;24.27;4.50;;;;;;;-0.62;100.00;103376.53;5062116;28;20466;-46
2022/01/21 00:03:42;;;;;;;27.27;4.03;;;;;;;-0.64;100.00;103383.59;5081043;28;20023;-44
2022/01/21 00:06:08;;;;;;;23.08;3.53;;;;;;;-0.62;100.00;103386.19;5081523;28;20043;-44
2022/01/21 00:08:36;;;;;;;16.00;3.13;;;;;;;-0.55;100.00;103385.19;5080733;28;20486;-43
2022/01/21 00:11:02;;;;;;;20.40;3.80;;;;;;;-0.48;100.00;103383.31;5062777;28;20395;-46
2022/01/21 00:13:36;;;;;;;24.45;3.75;;;;;;;-0.47;100.00;103387.69;5075471;28;20092;-47
2022/01/21 00:16:06;;;;;;;16.33;3.72;;;;;;;-0.50;100.00;103393.84;5080977;28;20027;-47
2022/01/21 00:18:34;;;;;;;16.48;3.53;;;;;;;-0.53;100.00;103387.78;5079853;28;20129;-47
2022/01/21 00:31:57;;;;;;;24.38;3.10;;;;;;;-0.76;100.00;103378.53;5081248;28;20047;-47
2022/01/21 00:34:23;;;;;;;25.85;3.78;;;;;;;-0.76;100.00;103384.66;5079933;28;20020;-46
2022/01/21 00:36:48;;;;;;;18.10;2.75;;;;;;;-0.80;100.00;103380.34;5081569;28;20482;-44
2022/01/21 00:39:14;;;;;;;25.67;3.72;;;;;;;-0.80;100.00;103384.72;5062611;28;20031;-48
2022/01/21 00:41:55;;;;;;;22.20;3.55;;;;;;;-0.82;100.00;103381.25;5080735;28;20027;-43
2022/01/21 00:44:20;;;;;;;21.20;2.83;;;;;;;-0.81;100.00;103385.63;5078346;28;20028;-47
2022/01/21 00:46:45;;;;;;;25.80;3.38;;;;;;;-0.82;100.00;103386.50;5079890;28;20390;-49
2022/01/21 00:49:11;;;;;;;21.92;3.85;;;;;;;-0.83;100.00;103382.13;5079858;28;20110;-45
2022/01/21 00:51:36;;;;;;;24.20;2.95;;;;;;;-0.82;100.00;103387.34;5080296;28;20623;-45
2022/01/21 00:54:01;;;;;;;30.83;3.33;;;;;;;-0.83;100.00;103384.75;5081747;28;20056;-46
2022/01/21 00:56:26;;;;;;;24.23;3.10;;;;;;;-0.85;100.00;103384.81;5080577;28;20031;-50
2022/01/21 00:58:52;;;;;;;16.88;2.95;;;;;;;-0.87;100.00;103389.19;5080648;28;20042;-45
2022/01/21 01:01:17;;;;;;;23.45;2.90;;;;;;;-0.89;100.00;103393.59;5079566;28;20030;-45
2022/01/21 01:03:43;;;;;;;29.92;3.15;;;;;;;-0.91;100.00;103392.75;5080286;28;20028;-50
2022/01/21 01:06:08;;;;;;;14.93;2.58;;;;;;;-0.90;100.00;103401.50;5080485;28;20503;-47
2022/01/21 01:08:34;;;;;;;25.50;2.83;;;;;;;-0.90;100.00;103398.88;5079547;28;20462;-45
2022/01/21 01:11:16;;;;;;;25.15;3.28;;;;;;;-0.89;100.00;103404.09;5080900;28;20554;-48
2022/01/21 01:21:46;;;;;;;18.35;2.50;;;;;;;-0.85;100.00;103395.31;5080349;28;20111;-44
2022/01/21 01:29:24;;;;;;;13.32;2.10;;;;;;;-0.83;100.00;103382.13;5079030;28;20105;-45
2022/01/21 01:31:51;;;;;;;18.10;2.63;;;;;;;-0.80;100.00;103377.72;5079399;28;20047;-48
2022/01/21 01:34:16;;;;;;;14.60;2.33;;;;;;;-0.79;100.00;103375.97;5078801;28;20043;-46
2022/01/21 01:36:44;;;;;;;23.45;2.22;;;;;;;-0.77;100.00;103382.03;5080087;28;20024;-45
2022/01/21 01:39:17;;;;;;;19.13;2.88;;;;;;;-0.76;100.00;103368.03;5079762;28;20031;-45
2022/01/21 01:41:58;;;;;;;23.40;2.33;;;;;;;-0.77;100.00;103363.69;5079997;28;20024;-49
2022/01/21 01:49:51;;;;;;;17.20;2.00;;;;;;;-0.79;100.00;103376.81;5079850;28;20094;-45
2022/01/21 01:52:17;;;;;;;18.77;2.08;;;;;;;-0.80;100.00;103372.47;5079558;28;20024;-45
2022/01/21 01:54:52;;;;;;;14.10;2.25;;;;;;;-0.79;100.00;103374.19;5060779;28;20031;-45
2022/01/21 01:57:18;;;;;;;13.60;2.20;;;;;;;-0.81;100.00;103375.97;5079451;28;20448;-45
2022/01/21 01:59:43;;;;;;;17.25;2.08;;;;;;;-0.85;100.00;103371.69;5079224;28;20024;-46
2022/01/21 02:02:12;;;;;;;17.52;2.33;;;;;;;-0.86;100.00;103372.56;5078349;28;20152;-44
2022/01/21 02:04:39;;;;;;;10.55;1.70;;;;;;;-0.88;100.00;103370.84;5078205;28;20043;-44
2022/01/21 02:07:05;;;;;;;13.43;1.45;;;;;;;-0.92;100.00;103371.78;5079882;28;20403;-44
2022/01/21 02:09:31;;;;;;;22.30;2.20;;;;;;;-0.92;100.00;103369.16;5075538;28;20032;-46
2022/01/21 02:11:56;;;;;;;16.42;1.98;;;;;;;-0.92;100.00;103379.66;5078617;28;20319;-46
2022/01/21 02:14:27;;;;;;;13.50;2.00;;;;;;;-0.89;100.00;103383.09;5078981;28;20050;-47
2022/01/21 02:22:10;;;;;;;18.17;2.10;;;;;;;-0.83;100.00;103371.63;5079540;28;20079;-47
2022/01/21 02:24:52;;;;;;;16.33;1.65;;;;;;;-0.80;100.00;103376.84;5077662;28;20281;-47
2022/01/21 02:27:18;;;;;;;10.90;1.90;;;;;;;-0.79;100.00;103379.44;5078408;28;20032;-45
2022/01/21 02:30:06;;;;;;;13.27;2.30;;;;;;;-0.80;100.00;103371.59;5079038;28;20419;-48
2022/01/21 02:32:29;;;;;;;15.45;1.52;;;;;;;-0.83;100.00;103372.53;5076576;28;20384;-43
2022/01/21 02:34:54;;;;;;;14.13;2.20;;;;;;;-0.85;100.00;103369.06;5078576;28;20024;-47
2022/01/21 02:37:21;;;;;;;21.08;2.10;;;;;;;-0.88;100.00;103363.88;5078419;28;20016;-49
2022/01/21 02:39:47;;;;;;;20.98;2.33;;;;;;;-0.89;100.00;103364.75;5079850;28;20385;-46
2022/01/21 02:42:13;;;;;;;14.82;1.80;;;;;;;-0.90;100.00;103360.41;5062596;28;20418;-49
2022/01/21 02:44:39;;;;;;;21.02;2.00;;;;;;;-0.94;100.00;103361.31;5079489;28;20042;-44
2022/01/21 02:47:06;;;;;;;18.67;2.28;;;;;;;-0.97;100.00;103369.25;5079301;28;20030;-44
2022/01/21 02:49:32;;;;;;;16.05;1.88;;;;;;;-1.00;100.00;103364.91;5060907;28;20054;-46
2022/01/21 02:52:02;;;;;;;22.10;2.67;;;;;;;-1.02;100.00;103369.34;5080409;28;20782;-48
2022/01/21 02:54:30;;;;;;;17.05;1.90;;;;;;;-1.01;100.00;103365.78;5078878;28;20055;-48
2022/01/21 02:56:56;;;;;;;13.68;1.90;;;;;;;-0.98;100.00;103370.16;5079949;28;20031;-44
2022/01/21 02:59:22;;;;;;;24.83;2.72;;;;;;;-0.92;100.00;103371.78;5079991;28;20027;-47
2022/01/21 03:01:49;;;;;;;14.75;2.22;;;;;;;-0.88;100.00;103365.59;5079726;28;20034;-47
2022/01/21 03:04:21;;;;;;;23.10;2.60;;;;;;;-0.83;100.00;103375.16;5079520;28;20031;-46
2022/01/21 03:06:47;;;;;;;16.33;2.55;;;;;;;-0.83;100.00;103377.78;5079841;28;20066;-49
2022/01/21 03:09:12;;;;;;;19.35;2.40;;;;;;;-0.81;100.00;103381.22;5061764;28;20050;-45
2022/01/21 03:11:37;;;;;;;23.85;2.35;;;;;;;-0.78;100.00;103380.28;5079648;28;20034;-45
2022/01/21 03:14:03;;;;;;;12.85;1.95;;;;;;;-0.78;100.00;103378.56;5080035;28;20065;-50
2022/01/21 03:16:28;;;;;;;11.52;1.60;;;;;;;-0.78;100.00;103380.28;5077962;28;20134;-49
2022/01/21 03:18:54;;;;;;;18.20;2.55;;;;;;;-0.80;100.00;103380.34;5078556;28;20020;-49
2022/01/21 03:21:19;;;;;;;22.73;1.85;;;;;;;-0.77;100.00;103382.03;5079137;28;20028;-47
2022/01/21 03:23:47;;;;;;;18.92;2.33;;;;;;;-0.74;100.00;103379.38;5079344;28;20047;-45
2022/01/21 03:26:16;;;;;;;13.88;1.77;;;;;;;-0.74;100.00;103386.38;5079355;28;20093;-44
2022/01/21 03:28:41;;;;;;;28.65;2.75;;;;;;;-0.70;100.00;103390.69;5079178;28;20091;-45
2022/01/21 03:31:07;;;;;;;23.08;1.92;;;;;;;-0.68;100.00;103399.38;5078535;28;20503;-45
2022/01/21 03:33:32;;;;;;;20.80;1.73;;;;;;;-0.68;100.00;103391.53;5078661;28;20035;-46
2022/01/21 03:35:58;;;;;;;17.00;2.78;;;;;;;-0.68;100.00;103384.53;5078817;28;20234;-46
2022/01/21 03:38:26;;;;;;;14.77;2.20;;;;;;;-0.68;100.00;103392.41;5078810;28;20486;-44
2022/01/21 03:40:51;;;;;;;14.98;2.55;;;;;;;-0.67;100.00;103391.50;5079277;28;20024;-47
2022/01/21 03:43:17;;;;;;;18.02;1.77;;;;;;;-0.68;100.00;103392.41;5078908;28;20043;-48
2022/01/21 03:45:43;;;;;;;14.27;2.15;;;;;;;-0.67;100.00;103399.38;5078612;28;20036;-48
2022/01/21 03:48:08;;;;;;;16.45;2.33;;;;;;;-0.65;100.00;103402.84;5079286;28;20058;-47
2022/01/21 03:50:33;;;;;;;21.05;1.95;;;;;;;-0.65;100.00;103408.06;5078494;28;20110;-46
2022/01/21 03:53:00;;;;;;;21.58;2.10;;;;;;;-0.67;100.00;103401.13;5079334;28;20035;-43
2022/01/21 03:55:26;;;;;;;16.92;1.95;;;;;;;-0.69;100.00;103405.56;5078685;28;20732;-46
2022/01/21 03:57:52;;;;;;;19.42;2.08;;;;;;;-0.69;100.00;103400.31;5060523;28;20016;-45
2022/01/21 04:00:22;;;;;;;17.35;2.33;;;;;;;-0.73;100.00;103404.75;5078756;28;20571;-46
2022/01/21 04:02:48;;;;;;;20.92;1.95;;;;;;;-0.81;100.00;103396.97;5078115;28;20112;-45
2022/01/21 04:05:13;;;;;;;13.88;1.73;;;;;;;-0.83;100.00;103397.88;5079173;28;20372;-45
2022/01/21 04:07:38;;;;;;;10.70;1.65;;;;;;;-0.89;100.00;103390.13;5078597;28;20040;-46
2022/01/21 04:10:05;;;;;;;15.10;1.70;;;;;;;-0.89;100.00;103390.13;5079845;28;20446;-48
2022/01/21 04:12:31;;;;;;;15.10;1.67;;;;;;;-0.90;100.00;103384.00;5078695;28;20486;-48
2022/01/21 04:14:58;;;;;;;18.92;2.40;;;;;;;-0.89;100.00;103390.97;5079402;28;20027;-46
2022/01/21 04:17:24;;;;;;;15.13;2.00;;;;;;;-0.89;100.00;103383.09;5076676;28;20024;-46
2022/01/21 04:19:49;;;;;;;19.45;1.42;;;;;;;-0.89;100.00;103382.25;5079399;28;20058;-43
2022/01/21 04:22:14;;;;;;;18.75;1.88;;;;;;;-0.86;100.00;103388.31;5079328;28;20146;-44
2022/01/21 04:24:40;;;;;;;12.85;1.90;;;;;;;-0.87;100.00;103390.94;5079024;28;20023;-43
2022/01/21 04:27:05;;;;;;;16.38;2.03;;;;;;;-0.87;100.00;103390.94;5081757;28;20455;-42
2022/01/21 04:29:31;;;;;;;21.05;1.63;;;;;;;-0.87;100.00;103378.69;5082150;28;20439;-45
2022/01/21 04:31:56;;;;;;;15.63;1.48;;;;;;;-0.86;100.00;103388.31;5081784;28;20336;-43
2022/01/21 04:34:21;;;;;;;18.38;2.00;;;;;;;-0.83;100.00;103387.38;5081142;28;20032;-42
2022/01/21 04:36:47;;;;;;;13.30;1.58;;;;;;;-0.80;100.00;103385.59;5082345;28;20226;-45
2022/01/21 04:39:19;;;;;;;18.70;1.95;;;;;;;-0.73;100.00;103383.75;5081672;28;20027;-45
2022/01/21 04:47:17;;;;;;;14.48;1.50;;;;;;;-0.70;100.00;103393.31;5080886;28;20128;-43
2022/01/21 04:49:39;;;;;;;10.95;1.50;;;;;;;-0.69;100.00;103397.69;5078866;28;20177;-45
2022/01/21 04:52:05;;;;;;;15.73;1.77;;;;;;;-0.71;100.00;103395.06;5081953;28;20035;-43
2022/01/21 04:54:31;;;;;;;14.50;1.67;;;;;;;-0.71;100.00;103396.81;5081518;28;20368;-46
2022/01/21 04:56:57;;;;;;;14.73;1.52;;;;;;;-0.72;100.00;103393.34;5081956;28;20042;-44
2022/01/21 04:59:22;;;;;;;11.50;1.35;;;;;;;-0.69;100.00;103392.44;5081008;28;20433;-42
2022/01/21 05:01:47;;;;;;;17.60;1.63;;;;;;;-0.70;100.00;103385.44;5080222;28;20040;-48
2022/01/21 05:04:13;;;;;;;16.83;2.20;;;;;;;-0.69;100.00;103381.94;5079458;28;20035;-45
2022/01/21 05:06:39;;;;;;;21.17;1.73;;;;;;;-0.68;100.00;103373.16;5079439;28;20028;-49
2022/01/21 05:09:05;;;;;;;9.80;1.98;;;;;;;-0.72;100.00;103379.34;5080814;28;20096;-47
2022/01/21 05:11:35;;;;;;;13.68;1.60;;;;;;;-0.76;100.00;103375.91;5079463;28;20039;-45
2022/01/21 05:14:12;;;;;;;18.02;1.63;;;;;;;-0.78;100.00;103378.56;5080902;28;20081;-45
2022/01/21 05:16:39;;;;;;;14.50;2.08;;;;;;;-0.82;100.00;103379.47;5079019;28;20383;-43
2022/01/21 05:19:13;;;;;;;18.17;1.67;;;;;;;-0.82;100.00;103378.63;5079582;28;20074;-43
2022/01/21 05:21:38;;;;;;;12.68;1.90;;;;;;;-0.87;100.00;103380.47;5080077;28;20031;-45
2022/01/21 05:24:05;;;;;;;13.48;2.17;;;;;;;-0.84;100.00;103388.28;5080959;28;20036;-42
2022/01/21 05:26:36;;;;;;;14.20;1.60;;;;;;;-0.84;100.00;103385.66;5079633;28;20027;-47
2022/01/21 05:29:11;;;;;;;16.27;1.88;;;;;;;-0.86;100.00;103382.22;5076732;28;20048;-43
2022/01/21 05:31:37;;;;;;;16.17;2.03;;;;;;;-0.86;100.00;103387.44;5073877;28;20027;-44
2022/01/21 05:34:03;;;;;;;8.13;1.98;;;;;;;-0.87;100.00;103380.47;5078105;28;20028;-46
2022/01/21 05:36:30;;;;;;;19.60;2.30;;;;;;;-0.90;100.00;103384.00;5078768;28;20073;-45
2022/01/21 05:38:56;;;;;;;9.95;2.00;;;;;;;-0.90;100.00;103386.63;5078985;28;20020;-43
2022/01/21 05:41:23;;;;;;;15.52;2.15;;;;;;;-0.93;100.00;103378.81;5078754;28;20035;-42
2022/01/21 05:43:49;;;;;;;12.35;2.28;;;;;;;-0.88;100.00;103381.34;5079101;28;20031;-43
2022/01/21 05:48:58;;;;;;;14.88;2.03;;;;;;;-0.84;100.00;103383.03;5078088;28;20043;-43
2022/01/21 05:51:24;;;;;;;12.60;1.65;;;;;;;-0.80;100.00;103387.34;5079764;28;20064;-42
2022/01/21 05:53:49;;;;;;;23.00;2.10;;;;;;;-0.80;100.00;103393.47;5076474;28;20032;-43
2022/01/21 05:56:15;;;;;;;11.68;2.25;;;;;;;-0.79;100.00;103399.56;5057414;28;20042;-42
2022/01/21 05:58:40;;;;;;;10.57;1.80;;;;;;;-0.82;100.00;103395.22;5049066;28;20028;-45
2022/01/21 06:01:06;;;;;;;12.75;1.92;;;;;;;-0.85;100.00;103397.94;5078742;28;20070;-46
2022/01/21 06:03:32;;;;;;;20.80;2.90;;;;;;;-0.88;100.00;103405.84;5078705;28;20040;-46
2022/01/21 06:05:58;;;;;;;15.50;2.10;;;;;;;-0.87;100.00;103402.31;5078797;28;20035;-44
2022/01/21 06:08:23;;;;;;;13.18;2.10;;;;;;;-0.86;100.00;103396.19;5079004;28;20042;-42
2022/01/21 06:10:49;;;;;;;21.27;2.00;;;;;;;-0.83;100.00;103395.25;5079412;28;20036;-42
2022/01/21 06:13:17;;;;;;;11.27;1.67;;;;;;;-0.81;100.00;103396.13;5079254;28;20027;-44
2022/01/21 06:15:43;;;;;;;14.77;2.10;;;;;;;-0.77;100.00;103395.16;5078450;28;20589;-44
2022/01/21 06:18:08;;;;;;;14.70;1.90;;;;;;;-0.79;100.00;103408.31;5077246;28;20086;-46
2022/01/21 06:20:33;;;;;;;14.52;2.00;;;;;;;-0.77;100.00;103400.41;5077216;28;20044;-43
2022/01/21 06:22:59;;;;;;;12.35;2.35;;;;;;;-0.76;100.00;103402.16;5079674;28;20113;-44
2022/01/21 06:25:24;;;;;;;20.38;1.75;;;;;;;-0.74;100.00;103407.38;5078797;28;20042;-43
2022/01/21 06:27:49;;;;;;;14.63;2.17;;;;;;;-0.70;100.00;103420.41;5062768;28;20109;-42
2022/01/21 06:30:15;;;;;;;11.52;2.25;;;;;;;-0.65;100.00;103420.34;5077722;28;20028;-43
2022/01/21 06:32:41;;;;;;;12.73;2.13;;;;;;;-0.56;100.00;103433.34;5078379;28;20081;-44
2022/01/21 06:35:10;;;;;;;13.80;2.25;;;;;;;-0.49;100.00;103437.59;5078914;28;20028;-44
2022/01/21 06:37:36;;;;;;;24.58;2.85;;;;;;;-0.40;100.00;103440.03;5078341;28;20621;-45
2022/01/21 06:40:04;;;;;;;23.85;2.95;;;;;;;-0.34;100.00;103444.34;5060873;28;20052;-48
2022/01/21 06:42:30;;;;;;;12.98;2.20;;;;;;;-0.28;100.00;103441.59;5078654;28;20475;-43
2022/01/21 06:44:56;;;;;;;20.88;3.67;;;;;;;-0.24;100.00;103445.91;5069183;28;20024;-44
2022/01/21 06:47:22;;;;;;;17.92;3.40;;;;;;;-0.24;100.00;103445.03;5070795;28;20543;-44
2022/01/21 06:49:47;;;;;;;27.83;4.28;;;;;;;-0.25;100.00;103449.44;5078529;28;20107;-47
2022/01/21 06:52:13;;;;;;;20.00;4.07;;;;;;;-0.20;100.00;103451.97;5078167;28;20035;-43
2022/01/21 06:54:39;;;;;;;13.75;3.05;;;;;;;-0.19;100.00;103453.69;5077321;28;20035;-49
2022/01/21 06:57:04;;;;;;;19.75;3.33;;;;;;;-0.17;100.00;103449.31;5078769;28;20077;-44
2022/01/21 06:59:29;;;;;;;12.63;3.00;;;;;;;-0.14;100.00;103458.88;5077516;28;20028;-43
2022/01/21 07:01:55;;;;;;;24.50;4.40;;;;;;;-0.11;100.00;103458.81;5077423;28;20069;-43
2022/01/21 07:04:20;;;;;;;14.38;4.20;;;;;;;-0.06;100.00;103463.09;5076893;28;20493;-42
2022/01/21 07:06:45;;;;;;;21.98;4.03;;;;;;;-0.02;100.00;103462.16;5078143;28;20600;-44
2022/01/21 07:09:11;;;;;;;26.65;4.78;;;;;;;0.02;100.00;103473.47;5079442;28;20043;-43
2022/01/21 07:11:36;;;;;;;26.15;5.40;;;;;;;0.05;100.00;103468.19;5078297;28;20046;-43
2022/01/21 07:14:01;;;;;;;21.83;5.00;;;;;;;0.07;100.00;103462.88;5080543;28;20034;-43
2022/01/21 07:16:26;;;;;;;24.08;6.20;;;;;;;0.08;100.00;103475.13;5077937;28;20468;-44
2022/01/21 07:18:52;;;;;;;15.05;5.43;;;;;;;0.06;100.00;103477.78;5078602;28;20024;-44
2022/01/21 07:21:17;;;;;;;20.55;5.70;;;;;;;0.01;100.00;103477.00;5060164;28;20474;-44
2022/01/21 07:23:42;;;;;;;19.90;5.30;;;;;;;0.01;100.00;103479.63;5060895;28;20119;-48
2022/01/21 07:26:08;;;;;;;16.05;5.63;;;;;;;0.03;100.00;103484.84;5078992;28;20444;-46
2022/01/21 07:28:33;;;;;;;24.90;8.07;;;;;;;0.06;100.00;103498.78;5066794;28;20055;-42
2022/01/21 07:30:59;;;;;;;22.17;6.20;;;;;;;0.07;100.00;103494.41;5071924;28;20383;-43
2022/01/21 07:33:24;;;;;;;22.90;5.95;;;;;;;0.11;100.00;103510.09;5077596;28;20405;-46
2022/01/21 07:35:49;;;;;;;24.10;6.80;;;;;;;0.15;100.00;103513.53;5077871;28;20118;-43
2022/01/21 07:38:15;;;;;;;23.92;5.88;;;;;;;0.19;100.00;103507.34;5079374;28;20027;-44
2022/01/21 07:40:40;;;;;;;22.00;5.78;;;;;;;0.22;100.00;103496.78;5078884;28;20110;-47
2022/01/21 07:43:06;;;;;;;17.20;5.50;;;;;;;0.23;100.00;103480.09;5060057;28;20020;-43
2022/01/21 07:45:32;;;;;;;16.10;6.22;;;;;;;0.30;100.00;103473.81;5077725;28;20032;-44
2022/01/21 07:47:58;;;;;;;26.63;5.50;;;;;;;0.33;100.00;103481.66;5078962;28;20933;-44
2022/01/21 07:50:23;;;;;;;15.43;5.35;;;;;;;0.40;100.00;103484.16;5077707;28;20036;-43
2022/01/21 07:52:48;;;;;;;17.40;5.22;;;;;;;0.42;100.00;103482.38;5078345;28;20032;-44
2022/01/21 07:55:14;;;;;;;17.83;5.18;;;;;;;0.42;100.00;103477.13;5078403;28;20020;-45
2022/01/21 07:57:39;;;;;;;16.40;5.10;;;;;;;0.48;100.00;103474.38;5076992;28;20035;-44
2022/01/21 08:00:05;;;;;;;17.00;5.03;;;;;;;0.52;100.00;103468.16;5080540;28;20360;-42
2022/01/21 08:02:32;;;;;;;16.33;5.35;;;;;;;0.54;100.00;103469.84;5081094;28;20085;-46
2022/01/21 08:05:00;;;;;;;18.63;5.03;;;;;;;0.61;100.00;103467.97;5082441;28;20099;-43
2022/01/21 08:07:25;;;;;;;17.50;5.22;;;;;;;0.64;100.00;103462.63;5080879;28;20099;-46
2022/01/21 08:09:51;;;;;;;17.23;5.18;;;;;;;0.68;100.00;103472.19;5079491;28;20343;-47
2022/01/21 08:12:18;;;;;;;22.30;5.18;;;;;;;0.71;100.00;103466.00;5081611;28;20030;-45
2022/01/21 08:14:43;;;;;;;20.60;4.82;;;;;;;0.73;100.00;103472.97;5082235;28;20123;-43
2022/01/21 08:17:09;;;;;;;24.23;4.82;;;;;;;0.73;100.00;103470.34;5081341;28;20099;-44
2022/01/21 08:19:34;;;;;;;21.33;4.95;;;;;;;0.70;100.00;103459.88;5080703;28;20027;-43
2022/01/21 08:22:00;;;;;;;13.05;4.40;;;;;;;0.65;100.00;103459.09;5083210;28;20031;-44
2022/01/21 08:24:25;;;;;;;20.83;5.35;;;;;;;0.59;100.00;103446.06;5063122;28;20369;-48
2022/01/21 08:26:50;;;;;;;18.48;5.30;;;;;;;0.53;100.00;103439.19;5082083;28;20448;-45
2022/01/21 08:29:16;;;;;;;17.15;5.40;;;;;;;0.54;100.00;103442.69;5081736;28;20031;-44
2022/01/21 08:31:43;;;;;;;12.70;4.55;;;;;;;0.55;100.00;103455.78;5062562;28;20023;-45
2022/01/21 08:34:08;;;;;;;15.15;5.18;;;;;;;0.57;100.00;103465.44;5080938;28;20020;-45
2022/01/21 08:36:34;;;;;;;14.57;5.38;;;;;;;0.58;100.00;103469.78;5081179;28;20421;-43
2022/01/21 08:38:59;;;;;;;21.60;5.55;;;;;;;0.59;100.00;103476.78;5081466;28;20488;-47
2022/01/21 08:41:24;;;;;;;15.77;4.90;;;;;;;0.62;100.00;103466.19;5080882;28;20036;-46
2022/01/21 08:43:49;;;;;;;23.70;6.55;;;;;;;0.63;100.00;103463.53;5081642;28;20019;-46
2022/01/21 08:46:15;;;;;;;15.10;6.47;;;;;;;0.70;100.00;103472.19;5063472;28;20027;-47
2022/01/21 08:48:40;;;;;;;14.07;5.97;;;;;;;0.71;100.00;103477.41;5081311;28;20008;-47
2022/01/21 08:51:09;;;;;;;18.73;5.13;;;;;;;0.72;100.00;103476.50;5081718;28;20024;-48
2022/01/21 08:53:36;;;;;;;20.40;4.38;;;;;;;0.74;100.00;103477.31;5079945;28;20032;-43
2022/01/21 08:56:02;;;;;;;14.32;4.60;;;;;;;0.76;100.00;103481.69;5080676;28;20050;-44
2022/01/21 08:58:27;;;;;;;16.80;4.35;;;;;;;0.77;100.00;103472.91;5080771;28;20011;-44
2022/01/21 09:00:53;;;;;;;18.40;4.18;;;;;;;0.78;100.00;103467.63;5081510;28;20043;-46
2022/01/21 09:03:18;;;;;;;19.65;4.55;;;;;;;0.83;100.00;103454.34;5079517;28;20113;-43
2022/01/21 09:05:48;;;;;;;16.52;4.00;;;;;;;0.90;100.00;103454.19;5079031;28;20024;-44
2022/01/21 09:08:15;;;;;;;19.15;4.70;;;;;;;1.01;100.00;103439.94;5080276;28;20016;-44
2022/01/21 09:10:40;;;;;;;22.08;4.95;;;;;;;1.12;100.00;103451.06;5080129;28;20028;-46
2022/01/21 09:13:05;;;;;;;19.38;3.80;;;;;;;1.18;100.00;103453.56;5080688;28;20062;-43
2022/01/21 09:15:33;;;;;;;15.48;4.93;;;;;;;1.26;100.00;103442.88;5079021;28;20504;-42
2022/01/21 09:18:03;;;;;;;14.35;4.03;;;;;;;1.34;100.00;103445.28;5080119;28;20081;-43
2022/01/21 09:20:29;;;;;;;13.10;4.10;;;;;;;1.38;100.00;103447.81;5080860;28;20031;-45
2022/01/21 09:22:54;;;;;;;11.85;4.30;;;;;;;1.44;100.00;103450.31;5081491;28;20353;-43
2022/01/21 09:25:19;;;;;;;18.70;4.10;;;;;;;1.47;100.00;103442.31;5081078;28;20032;-44
2022/01/21 09:27:45;;;;;;;13.32;4.10;;;;;;;1.55;100.00;103443.94;5081002;28;20123;-43
2022/01/21 09:30:11;;;;;;;21.48;4.15;;;;;;;1.56;100.00;103449.16;5080940;28;20028;-46
2022/01/21 09:32:36;;;;;;;13.20;3.65;;;;;;;1.63;100.00;103455.09;5079963;28;20034;-44
2022/01/21 09:35:01;;;;;;;15.55;4.57;;;;;;;1.66;100.00;103455.03;5081531;28;20020;-46
2022/01/21 09:37:27;;;;;;;15.75;4.40;;;;;;;1.72;100.00;103457.53;5080448;28;20031;-43
2022/01/21 09:39:52;;;;;;;18.45;4.05;;;;;;;1.77;100.00;103466.19;5081097;28;20036;-42
2022/01/21 09:42:18;;;;;;;17.50;3.95;;;;;;;1.83;100.00;103468.66;5080299;28;20036;-44
2022/01/21 09:44:45;;;;;;;16.17;4.85;;;;;;;1.92;100.00;103462.28;5061611;28;20379;-46
2022/01/21 09:47:12;;;;;;;18.70;4.30;;;;;;;2.01;100.00;103471.72;5079707;28;20100;-47
2022/01/21 09:49:41;;;;;;;11.32;3.47;;;;;;;2.13;100.00;103473.16;5078156;28;20043;-44
2022/01/21 09:52:08;;;;;;;9.27;2.80;;;;;;;2.23;100.00;103478.13;5079879;28;20058;-43
2022/01/21 09:54:37;;;;;;;12.52;3.10;;;;;;;2.33;100.00;103475.28;5080265;28;20307;-45
2022/01/21 09:57:06;;;;;;;19.13;3.85;;;;;;;2.39;100.00;103486.53;5074764;28;20032;-44
2022/01/21 09:59:34;;;;;;;15.73;3.47;;;;;;;2.47;100.00;103475.72;5067849;28;20093;-44
2022/01/21 10:02:03;;;;;;;11.50;2.97;;;;;;;2.50;100.00;103478.28;5080983;28;20028;-43
2022/01/21 10:04:34;;;;;;;20.67;3.50;;;;;;;2.59;100.00;103479.78;5078957;28;20024;-44
2022/01/21 10:07:01;;;;;;;18.02;3.63;;;;;;;2.65;100.00;103490.19;5080360;28;20020;-43
2022/01/21 10:09:27;;;;;;;16.00;3.35;;;;;;;2.73;100.00;103492.59;5061001;28;20024;-43
2022/01/21 10:11:55;;;;;;;17.15;2.80;;;;;;;2.84;100.00;103506.34;5080942;28;20553;-46
2022/01/21 10:14:23;;;;;;;23.10;3.63;;;;;;;2.94;100.00;103505.16;5079561;28;20078;-44
2022/01/21 10:16:49;;;;;;;15.65;3.40;;;;;;;3.03;100.00;103517.22;5079358;28;20023;-44
2022/01/21 10:19:27;;;;;;;16.17;3.30;;;;;;;3.13;100.00;103508.09;5078653;28;20767;-45
2022/01/21 10:22:03;;;;;;;14.90;2.75;;;;;;;3.35;100.00;103520.66;5079802;28;20032;-44
2022/01/21 10:24:30;;;;;;;22.00;3.22;;;;;;;3.66;100.00;103517.88;5060551;28;20027;-43
2022/01/21 10:26:58;;;;;;;16.27;3.10;;;;;;;3.91;100.00;103517.94;5079524;28;20482;-43
2022/01/21 10:29:25;;;;;;;14.13;2.50;;;;;;;4.03;100.00;103518.47;5078872;28;20035;-44
2022/01/21 10:31:54;;;;;;;19.15;2.30;;;;;;;4.13;100.00;103521.66;5079565;28;20036;-43
2022/01/21 10:34:28;;;;;;;17.45;2.50;;;;;;;4.20;100.00;103520.53;5077872;28;20058;-43
2022/01/21 10:37:04;;;;;;;16.13;2.55;;;;;;;4.25;100.00;103527.38;5079012;28;20015;-47
2022/01/21 10:39:31;;;;;;;9.30;2.30;;;;;;;4.30;100.00;103516.63;5078371;28;20077;-44
2022/01/21 10:41:57;;;;;;;18.73;2.30;;;;;;;4.35;100.00;103525.28;5072145;28;20111;-43
2022/01/21 10:44:30;;;;;;;16.20;2.40;;;;;;;4.39;100.00;103531.31;5074338;28;20040;-42
2022/01/21 10:47:09;;;;;;;15.35;2.40;;;;;;;4.44;100.00;103532.88;5079316;28;20114;-46
2022/01/21 10:49:39;;;;;;;17.77;2.58;;;;;;;4.50;100.00;103537.09;5072865;28;20032;-44
2022/01/21 10:52:09;;;;;;;16.48;2.55;;;;;;;4.45;100.00;103542.53;5078541;28;20039;-44
2022/01/21 10:54:41;;;;;;;16.83;2.40;;;;;;;4.37;100.00;103515.50;5078238;28;20031;-44
2022/01/21 10:57:16;;;;;;;;;;;;;;;4.29;100.00;103514.88;5075001;28;20024;-46
2022/01/21 11:00:03;;;;;;;21.35;2.45;;;;;;;4.23;100.00;103509.84;5067973;28;20286;-43
2022/01/21 11:02:31;;;;;;;19.65;1.90;;;;;;;4.32;100.00;103511.28;5075916;28;20115;-42
2022/01/21 11:04:59;;;;;;;14.75;2.17;;;;;;;4.40;100.00;103503.94;5076257;28;20039;-45
2022/01/21 11:07:45;;;;;;;23.40;2.78;;;;;;;4.52;100.00;103500.00;5077678;28;20028;-44
2022/01/21 11:10:33;;;;;;;16.10;2.80;;;;;;;4.75;100.00;103486.78;5079827;28;20093;-45
2022/01/21 11:12:59;;;;;;;22.65;3.00;;;;;;;4.98;100.00;103483.22;5078459;28;20028;-47
2022/01/21 11:15:37;;;;;;;19.48;3.53;;;;;;;5.08;100.00;103482.88;5077827;28;20024;-43
2022/01/21 11:18:03;;;;;;;32.60;4.55;;;;;;;5.06;100.00;103482.94;5079115;28;20122;-47
2022/01/21 11:20:39;;;;;;;15.70;3.17;;;;;;;4.99;100.00;103476.13;5078195;28;20107;-44
2022/01/21 11:23:08;;;;;;;24.52;3.38;;;;;;;4.93;100.00;103469.31;5079603;28;20120;-44
2022/01/21 11:25:47;;;;;;;25.13;3.65;;;;;;;4.89;100.00;103465.06;5079039;28;20016;-45
2022/01/21 11:28:18;;;;;;;15.57;2.78;;;;;;;4.83;100.00;103460.00;5078580;28;20048;-44
2022/01/21 11:30:44;;;;;;;19.37;2.90;;;;;;;4.81;100.00;103451.25;5059810;28;20366;-45
2022/01/21 11:33:10;;;;;;;19.17;3.00;;;;;;;4.78;100.00;103460.16;5079252;28;20509;-42
2022/01/21 11:35:36;;;;;;;26.77;4.18;;;;;;;4.72;100.00;103465.72;5082258;28;20067;-45
2022/01/21 11:38:05;;;;;;;26.40;3.72;;;;;;;4.70;100.00;103471.97;5066065;28;20059;-45
2022/01/21 11:40:31;;;;;;;22.00;2.80;;;;;;;4.70;100.00;103478.16;5082903;28;20487;-44
2022/01/21 11:42:57;;;;;;;20.02;2.65;;;;;;;4.71;100.00;103471.91;5084556;28;20026;-43
2022/01/21 11:50:42;;;;;;;19.77;3.70;;;;;;;4.83;100.00;103458.19;5050404;28;19954;-42
2022/01/21 11:53:08;;;;;;;19.95;3.08;;;;;;;4.91;100.00;103459.72;5083406;28;20073;-48
2022/01/21 11:55:38;;;;;;;24.80;3.40;;;;;;;5.01;100.00;103453.13;5082751;28;20024;-47
2022/01/21 11:58:17;;;;;;;26.88;3.35;;;;;;;5.19;100.00;103447.09;5065040;28;20020;-44
2022/01/21 12:00:47;;;;;;;17.80;2.92;;;;;;;5.29;100.00;103449.38;5082210;28;20040;-42